createdAt,value
2018-07-22T00:01:51.060Z,7.33
2018-07-22T00:04:19.597Z,7.05
2018-07-22T00:06:48.130Z,7.47
2018-07-22T00:09:16.775Z,8.13
2018-07-22T00:11:45.495Z,8.75
2018-07-22T00:14:14.062Z,9.20
2018-07-22T00:16:42.660Z,9.23
2018-07-22T00:19:11.744Z,9.43
2018-07-22T00:21:40.784Z,9.10
2018-07-22T00:24:09.550Z,9.00
2018-07-22T00:26:38.160Z,8.55
2018-07-22T00:29:07.650Z,9.20
2018-07-22T00:31:36.393Z,8.98
2018-07-22T00:34:04.916Z,8.98
2018-07-22T00:36:33.491Z,10.45
2018-07-22T00:39:03.273Z,8.65
2018-07-22T00:41:32.365Z,9.15
2018-07-22T00:44:01.259Z,8.60
2018-07-22T00:46:30.104Z,8.90
2018-07-22T00:48:58.855Z,8.68
2018-07-22T00:51:27.632Z,8.98
2018-07-22T00:53:56.254Z,9.03
2018-07-22T00:56:24.752Z,8.95
2018-07-22T00:58:53.368Z,9.15
2018-07-22T01:01:22.035Z,8.50
2018-07-22T01:03:50.815Z,8.73
2018-07-22T01:06:19.438Z,8.65
2018-07-22T01:08:47.963Z,7.50
2018-07-22T01:11:16.494Z,7.92
2018-07-22T01:13:45.623Z,7.53
2018-07-22T01:16:14.143Z,7.80
2018-07-22T01:18:43.262Z,7.35
2018-07-22T01:21:12.164Z,7.55
2018-07-22T01:23:40.730Z,7.53
2018-07-22T01:26:09.759Z,7.28
2018-07-22T01:28:38.603Z,7.60
2018-07-22T01:31:07.731Z,7.42
2018-07-22T01:33:36.892Z,7.30
2018-07-22T01:36:05.536Z,7.03
2018-07-22T01:38:34.159Z,6.97
2018-07-22T01:41:02.692Z,6.83
2018-07-22T01:43:31.675Z,7.17
2018-07-22T01:46:00.292Z,7.12
2018-07-22T01:48:29.190Z,7.03
2018-07-22T01:50:57.692Z,7.33
2018-07-22T01:53:26.311Z,7.10
2018-07-22T01:55:55.199Z,6.75
2018-07-22T01:58:23.858Z,6.58
2018-07-22T02:00:52.629Z,6.60
2018-07-22T02:03:20.992Z,6.40
2018-07-22T02:05:49.735Z,7.28
2018-07-22T02:08:19.005Z,6.90
2018-07-22T02:10:48.149Z,6.15
2018-07-22T02:13:17.208Z,6.15
2018-07-22T02:15:46.043Z,6.35
2018-07-22T02:18:14.559Z,6.30
2018-07-22T02:20:43.343Z,6.25
2018-07-22T02:23:11.990Z,6.87
2018-07-22T02:25:40.852Z,6.62
2018-07-22T02:28:09.826Z,6.10
2018-07-22T02:30:38.463Z,6.67
2018-07-22T02:33:07.267Z,6.70
2018-07-22T02:35:35.932Z,6.28
2018-07-22T02:38:04.799Z,6.20
2018-07-22T02:40:33.327Z,5.67
2018-07-22T02:43:02.112Z,5.92
2018-07-22T02:45:30.881Z,6.95
2018-07-22T02:47:59.935Z,6.37
2018-07-22T02:50:28.780Z,6.15
2018-07-22T02:52:57.362Z,7.20
2018-07-22T02:55:26.576Z,6.78
2018-07-22T02:57:55.312Z,7.42
2018-07-22T03:00:23.808Z,6.12
2018-07-22T03:02:52.860Z,6.12
2018-07-22T03:05:21.392Z,6.17
2018-07-22T03:07:50.084Z,5.80
2018-07-22T03:10:18.726Z,6.20
2018-07-22T03:12:47.370Z,6.33
2018-07-22T03:15:15.989Z,5.80
2018-07-22T03:17:44.644Z,6.70
2018-07-22T03:20:13.170Z,6.30
2018-07-22T03:22:41.695Z,6.25
2018-07-22T03:25:10.326Z,6.65
2018-07-22T03:27:38.994Z,7.22
2018-07-22T03:30:07.642Z,7.00
2018-07-22T03:32:36.319Z,7.87
2018-07-22T03:35:04.860Z,7.58
2018-07-22T03:37:33.706Z,7.53
2018-07-22T03:40:02.548Z,7.53
2018-07-22T03:42:31.168Z,7.47
2018-07-22T03:45:00.072Z,7.55
2018-07-22T03:47:28.720Z,7.40
2018-07-22T03:49:57.372Z,7.72
2018-07-22T03:52:26.394Z,7.78
2018-07-22T03:54:54.928Z,7.78
2018-07-22T03:57:24.151Z,7.58
2018-07-22T03:59:53.034Z,8.23
2018-07-22T04:02:21.568Z,7.92
2018-07-22T04:04:50.412Z,7.97
2018-07-22T04:07:19.079Z,8.65
2018-07-22T04:09:47.576Z,8.45
2018-07-22T04:12:16.095Z,8.28
2018-07-22T04:14:44.806Z,8.25
2018-07-22T04:17:13.755Z,8.30
2018-07-22T04:19:42.387Z,8.00
2018-07-22T04:22:10.979Z,7.72
2018-07-22T04:24:39.640Z,8.35
2018-07-22T04:27:08.499Z,8.68
2018-07-22T04:29:37.082Z,7.97
2018-07-22T04:32:05.835Z,8.05
2018-07-22T04:34:34.456Z,8.23
2018-07-22T04:37:03.231Z,8.75
2018-07-22T04:39:31.897Z,8.00
2018-07-22T04:42:00.419Z,8.18
2018-07-22T04:44:29.196Z,7.70
2018-07-22T04:46:57.865Z,7.65
2018-07-22T04:49:26.815Z,7.97
2018-07-22T04:51:55.209Z,8.08
2018-07-22T04:54:23.802Z,8.03
2018-07-22T04:56:52.666Z,8.35
2018-07-22T04:59:21.502Z,7.05
2018-07-22T05:01:50.959Z,7.33
2018-07-22T05:04:19.891Z,7.37
2018-07-22T05:06:49.423Z,7.78
2018-07-22T05:09:18.152Z,7.35
2018-07-22T05:11:47.015Z,7.47
2018-07-22T05:14:15.586Z,7.67
2018-07-22T05:16:44.282Z,7.62
2018-07-22T05:19:13.015Z,7.70
2018-07-22T05:21:42.204Z,8.60
2018-07-22T05:24:10.834Z,7.78
2018-07-22T05:26:39.360Z,8.88
2018-07-22T05:29:08.108Z,7.62
2018-07-22T05:31:36.877Z,7.40
2018-07-22T05:34:05.686Z,7.30
2018-07-22T05:36:34.407Z,7.80
2018-07-22T05:39:03.155Z,7.80
2018-07-22T05:41:31.921Z,8.05
2018-07-22T05:44:00.873Z,7.85
2018-07-22T05:46:29.382Z,8.53
2018-07-22T05:48:58.277Z,8.48
2018-07-22T05:51:27.558Z,8.80
2018-07-22T05:53:56.134Z,12.13
2018-07-22T05:56:25.117Z,12.43
2018-07-22T05:58:53.767Z,12.03
2018-07-22T06:01:22.706Z,11.88
2018-07-22T06:03:51.510Z,13.90
2018-07-22T06:06:20.402Z,11.03
2018-07-22T06:08:49.084Z,11.48
2018-07-22T06:11:17.902Z,11.55
2018-07-22T06:13:46.692Z,11.05
2018-07-22T06:16:15.448Z,11.73
2018-07-22T06:18:44.547Z,13.22
2018-07-22T06:21:13.740Z,13.10
2018-07-22T06:23:42.635Z,12.03
2018-07-22T06:26:12.090Z,12.25
2018-07-22T06:28:40.975Z,11.20
2018-07-22T06:31:09.638Z,12.80
2018-07-22T06:33:38.194Z,10.85
2018-07-22T06:36:06.859Z,11.15
2018-07-22T06:38:35.631Z,12.82
2018-07-22T06:41:04.799Z,11.15
2018-07-22T06:43:33.753Z,9.33
2018-07-22T06:46:02.691Z,10.45
2018-07-22T06:48:31.366Z,12.85
2018-07-22T06:51:00.455Z,12.28
2018-07-22T06:53:29.125Z,12.78
2018-07-22T06:55:57.897Z,7.67
2018-07-22T06:58:26.889Z,6.90
2018-07-22T07:00:56.004Z,6.55
2018-07-22T07:03:24.697Z,5.10
2018-07-22T08:26:49.389Z,3.58
2018-07-22T08:36:37.027Z,3.10
2018-07-22T08:39:07.783Z,4.42
2018-07-22T08:41:36.947Z,4.17
2018-07-22T08:44:06.100Z,3.87
2018-07-22T08:46:35.286Z,3.30
2018-07-22T08:49:04.260Z,3.08
2018-07-22T08:51:33.607Z,3.10
2018-07-22T08:54:02.880Z,3.35
2018-07-22T08:56:31.789Z,3.02
2018-07-22T08:59:00.600Z,3.33
2018-07-22T09:01:30.544Z,3.17
2018-07-22T09:03:59.182Z,3.30
2018-07-22T09:06:28.655Z,3.02
2018-07-22T09:08:58.862Z,3.55
2018-07-22T09:11:27.563Z,3.55
2018-07-22T09:13:57.654Z,2.80
2018-07-22T09:16:26.992Z,3.17
2018-07-22T09:18:55.499Z,2.90
2018-07-22T09:21:24.735Z,3.55
2018-07-22T09:23:53.773Z,2.55
2018-07-22T09:26:22.777Z,2.85
2018-07-22T09:28:52.395Z,2.87
2018-07-22T09:31:21.292Z,2.80
2018-07-22T09:33:50.059Z,2.75
2018-07-22T09:36:18.774Z,3.12
2018-07-22T09:38:47.618Z,2.98
2018-07-22T09:41:16.667Z,2.87
2018-07-22T09:43:45.308Z,2.50
2018-07-22T09:46:14.076Z,2.85
2018-07-22T09:48:42.776Z,2.85
2018-07-22T09:51:11.688Z,2.85
2018-07-22T09:53:40.530Z,3.00
2018-07-22T09:56:09.522Z,2.92
2018-07-22T09:58:38.724Z,2.85
2018-07-22T10:01:07.688Z,2.77
2018-07-22T10:03:36.442Z,2.80
2018-07-22T10:06:05.846Z,3.00
2018-07-22T10:08:35.213Z,2.90
2018-07-22T10:11:03.994Z,3.30
2018-07-22T10:13:32.680Z,3.10
2018-07-22T10:16:01.224Z,2.60
2018-07-22T10:18:30.034Z,3.42
2018-07-22T10:20:58.778Z,2.92
2018-07-22T10:23:27.601Z,3.40
2018-07-22T10:25:56.218Z,2.90
2018-07-22T10:28:25.351Z,2.87
2018-07-22T10:30:54.024Z,2.90
2018-07-22T10:33:22.739Z,2.87
2018-07-22T10:35:51.326Z,2.52
2018-07-22T10:38:19.750Z,3.20
2018-07-22T10:40:48.363Z,3.45
2018-07-22T10:43:17.289Z,2.95
2018-07-22T10:45:47.105Z,3.25
2018-07-22T10:48:16.589Z,3.67
2018-07-22T10:50:46.174Z,3.22
2018-07-22T10:53:14.950Z,3.22
2018-07-22T10:55:43.583Z,3.30
2018-07-22T10:58:12.184Z,3.20
2018-07-22T11:00:40.820Z,3.37
2018-07-22T11:03:09.523Z,3.45
2018-07-22T11:05:38.277Z,3.20
2018-07-22T11:08:06.838Z,3.22
2018-07-22T11:10:35.830Z,3.40
2018-07-22T11:13:04.464Z,3.22
2018-07-22T11:15:33.234Z,3.30
2018-07-22T11:18:01.884Z,3.58
2018-07-22T11:20:30.543Z,3.45
2018-07-22T11:22:59.113Z,3.50
2018-07-22T11:25:27.775Z,2.98
2018-07-22T11:27:56.298Z,3.10
2018-07-22T11:30:24.845Z,2.95
2018-07-22T11:32:55.002Z,3.27
2018-07-22T11:35:25.329Z,3.40
2018-07-22T11:37:55.225Z,3.35
2018-07-22T11:40:27.071Z,3.40
2018-07-22T11:42:57.829Z,3.33
2018-07-22T11:45:28.164Z,3.58
2018-07-22T11:47:56.896Z,4.28
2018-07-22T11:50:25.733Z,3.40
2018-07-22T11:52:55.262Z,3.45
2018-07-22T11:55:24.356Z,3.52
2018-07-22T11:57:52.983Z,3.67
2018-07-22T12:00:22.231Z,3.10
2018-07-22T12:02:50.816Z,3.22
2018-07-22T12:05:20.742Z,3.02
2018-07-22T12:07:50.279Z,3.20
2018-07-22T12:10:18.913Z,3.98
2018-07-22T12:12:47.635Z,3.17
2018-07-22T12:15:16.260Z,3.60
2018-07-22T12:17:45.031Z,3.35
2018-07-22T12:20:13.806Z,3.30
2018-07-22T12:22:42.447Z,3.62
2018-07-22T12:25:11.234Z,3.67
2018-07-22T12:27:40.209Z,3.87
2018-07-22T12:30:08.853Z,3.95
2018-07-22T12:32:37.600Z,4.25
2018-07-22T12:35:06.699Z,4.12
2018-07-22T12:37:35.333Z,4.22
2018-07-22T12:40:04.017Z,4.12
2018-07-22T12:42:32.737Z,3.80
2018-07-22T12:45:01.564Z,4.10
2018-07-22T12:47:30.231Z,4.47
2018-07-22T12:49:58.955Z,4.78
2018-07-22T12:52:27.803Z,4.30
2018-07-22T12:54:56.327Z,4.75
2018-07-22T12:57:25.156Z,4.08
2018-07-22T12:59:54.087Z,4.10
2018-07-22T13:02:22.877Z,3.72
2018-07-22T13:04:51.614Z,4.00
2018-07-22T13:07:20.433Z,4.10
2018-07-22T13:09:49.218Z,3.50
2018-07-22T13:12:17.940Z,4.55
2018-07-22T13:14:46.887Z,3.95
2018-07-22T13:17:15.550Z,4.22
2018-07-22T13:19:44.291Z,4.08
2018-07-22T13:22:13.239Z,4.10
2018-07-22T13:24:42.027Z,3.80
2018-07-22T13:27:10.720Z,3.90
2018-07-22T13:29:39.487Z,3.80
2018-07-22T13:32:08.472Z,3.90
2018-07-22T13:34:37.207Z,3.90
2018-07-22T13:37:06.722Z,3.90
2018-07-22T13:39:35.475Z,3.95
2018-07-22T13:42:04.084Z,4.40
2018-07-22T13:44:32.606Z,4.08
2018-07-22T13:47:01.398Z,3.92
2018-07-22T13:49:30.031Z,4.55
2018-07-22T13:51:58.790Z,4.50
2018-07-22T13:54:27.437Z,4.83
2018-07-22T13:56:55.738Z,4.25
2018-07-22T13:59:24.401Z,4.53
2018-07-22T14:01:53.026Z,4.55
2018-07-22T14:04:21.586Z,4.62
2018-07-22T14:06:50.237Z,5.40
2018-07-22T14:09:18.897Z,4.75
2018-07-22T14:11:47.709Z,4.62
2018-07-22T14:14:16.394Z,4.53
2018-07-22T14:16:47.121Z,4.75
2018-07-22T14:19:15.976Z,4.62
2018-07-22T14:21:44.899Z,4.50
2018-07-22T14:24:13.502Z,4.40
2018-07-22T14:26:42.033Z,4.17
2018-07-22T14:29:10.835Z,4.75
2018-07-22T14:31:39.537Z,4.20
2018-07-22T14:34:08.305Z,4.47
2018-07-22T14:36:37.101Z,4.28
2018-07-22T14:39:09.764Z,4.70
2018-07-22T14:41:38.346Z,4.62
2018-07-22T14:44:06.879Z,3.85
2018-07-22T14:46:35.881Z,4.15
2018-07-22T14:49:04.935Z,4.40
2018-07-22T14:51:33.671Z,4.10
2018-07-22T14:54:02.652Z,4.42
2018-07-22T14:56:31.284Z,4.05
2018-07-22T14:58:59.783Z,4.40
2018-07-22T15:01:28.550Z,4.40
2018-07-22T15:03:57.098Z,4.28
2018-07-22T15:06:25.899Z,4.70
2018-07-22T15:08:54.531Z,4.40
2018-07-22T15:11:23.195Z,4.28
2018-07-22T15:13:51.928Z,3.72
2018-07-22T15:16:20.611Z,4.30
2018-07-22T15:18:48.952Z,4.30
2018-07-22T15:21:17.672Z,4.05
2018-07-22T15:23:46.486Z,4.22
2018-07-22T15:26:15.216Z,4.20
2018-07-22T15:28:43.946Z,3.98
2018-07-22T15:31:12.518Z,4.10
2018-07-22T15:33:41.251Z,3.80
2018-07-22T15:36:10.019Z,4.25
2018-07-22T15:38:38.765Z,4.17
2018-07-22T15:41:07.404Z,3.62
2018-07-22T15:43:36.016Z,4.25
2018-07-22T15:46:04.635Z,3.85
2018-07-22T15:48:33.368Z,4.03
2018-07-22T15:51:02.130Z,3.98
2018-07-22T15:53:30.799Z,4.33
2018-07-22T15:55:59.632Z,4.03
2018-07-22T15:58:28.212Z,3.67
2018-07-22T16:00:57.000Z,4.12
2018-07-22T16:03:25.611Z,3.98
2018-07-22T16:05:54.323Z,3.90
2018-07-22T16:08:23.063Z,4.53
2018-07-22T16:10:51.821Z,3.72
2018-07-22T16:13:20.053Z,3.80
2018-07-22T16:15:48.750Z,4.15
2018-07-22T16:18:17.298Z,4.25
2018-07-22T16:20:46.058Z,3.85
2018-07-22T16:23:14.779Z,4.30
2018-07-22T16:25:43.374Z,4.17
2018-07-22T16:28:12.016Z,4.10
2018-07-22T16:30:40.553Z,4.00
2018-07-22T16:33:09.502Z,4.10
2018-07-22T16:35:38.343Z,4.42
2018-07-22T16:38:06.990Z,4.22
2018-07-22T16:40:35.626Z,4.00
2018-07-22T16:43:04.164Z,4.08
2018-07-22T16:45:32.810Z,4.33
2018-07-22T16:48:01.447Z,3.95
2018-07-22T16:50:30.048Z,3.87
2018-07-22T16:52:59.189Z,3.87
2018-07-22T16:55:27.867Z,4.33
2018-07-22T16:57:56.620Z,4.53
2018-07-22T17:00:25.627Z,4.50
2018-07-22T17:02:54.355Z,4.28
2018-07-22T17:05:23.111Z,4.60
2018-07-22T17:07:51.651Z,4.60
2018-07-22T17:10:20.194Z,4.90
2018-07-22T17:12:49.058Z,5.08
2018-07-22T17:15:17.978Z,5.28
2018-07-22T17:17:47.064Z,5.00
2018-07-22T17:20:15.739Z,4.97
2018-07-22T17:22:44.344Z,4.72
2018-07-22T17:25:13.287Z,5.05
2018-07-22T17:27:42.253Z,5.20
2018-07-22T17:30:10.918Z,4.92
2018-07-22T17:32:39.667Z,5.22
2018-07-22T17:35:08.399Z,5.00
2018-07-22T17:37:36.927Z,5.20
2018-07-22T17:40:05.527Z,5.17
2018-07-22T17:42:34.912Z,5.15
2018-07-22T17:45:03.571Z,5.45
2018-07-22T17:47:32.390Z,5.10
2018-07-22T17:50:01.385Z,5.37
2018-07-22T17:52:29.908Z,5.22
2018-07-22T17:54:59.023Z,5.40
2018-07-22T17:57:27.782Z,5.28
2018-07-22T17:59:56.407Z,5.35
2018-07-22T18:02:25.046Z,5.62
2018-07-22T18:04:54.127Z,5.45
2018-07-22T18:07:22.890Z,5.47
2018-07-22T18:09:51.762Z,5.50
2018-07-22T18:12:20.391Z,6.00
2018-07-22T18:14:48.910Z,5.62
2018-07-22T18:17:17.677Z,5.42
2018-07-22T18:19:47.183Z,5.33
2018-07-22T18:22:15.759Z,5.25
2018-07-22T18:24:44.492Z,4.50
2018-07-22T18:27:13.302Z,4.33
2018-07-22T18:29:41.975Z,4.25
2018-07-22T18:32:10.916Z,3.92
2018-07-22T18:34:39.760Z,4.20
2018-07-22T18:37:09.081Z,4.15
2018-07-22T18:39:37.667Z,4.22
2018-07-22T18:42:06.446Z,4.37
2018-07-22T18:44:34.991Z,4.47
2018-07-22T18:47:03.822Z,3.92
2018-07-22T18:49:32.639Z,4.33
2018-07-22T18:52:01.378Z,4.53
2018-07-22T18:54:30.068Z,4.37
2018-07-22T18:56:58.927Z,4.42
2018-07-22T18:59:28.084Z,3.98
2018-07-22T19:01:56.746Z,4.22
2018-07-22T19:04:25.059Z,3.95
2018-07-22T19:06:53.684Z,4.83
2018-07-22T19:09:22.329Z,4.10
2018-07-22T19:11:50.940Z,4.30
2018-07-22T19:14:20.094Z,4.72
2018-07-22T19:16:49.340Z,4.45
2018-07-22T19:19:18.220Z,4.70
2018-07-22T19:21:47.043Z,4.47
2018-07-22T19:24:17.066Z,4.08
2018-07-22T19:26:46.050Z,4.30
2018-07-22T19:29:14.840Z,4.45
2018-07-22T19:31:43.655Z,4.20
2018-07-22T19:34:14.807Z,4.20
2018-07-22T19:36:43.846Z,4.33
2018-07-22T19:39:31.422Z,4.65
2018-07-22T19:42:00.406Z,4.85
2018-07-22T19:44:29.408Z,4.80
2018-07-22T19:46:59.461Z,4.42
2018-07-22T19:49:28.233Z,4.65
2018-07-22T19:51:56.939Z,4.20
2018-07-22T19:54:26.406Z,4.55
2018-07-22T19:56:56.519Z,4.37
2018-07-22T19:59:25.534Z,4.55
2018-07-22T20:01:54.237Z,4.50
2018-07-22T20:04:22.817Z,4.28
2018-07-22T20:06:51.617Z,4.37
2018-07-22T20:09:20.257Z,4.67
2018-07-22T20:11:49.008Z,4.45
2018-07-22T20:14:17.774Z,4.10
2018-07-22T20:16:46.693Z,4.65
2018-07-22T20:19:15.394Z,4.78
2018-07-22T20:21:44.443Z,4.97
2018-07-22T20:24:13.212Z,4.95
2018-07-22T20:26:41.719Z,4.97
2018-07-22T20:29:10.622Z,5.22
2018-07-22T20:31:39.569Z,5.30
2018-07-22T20:34:08.270Z,4.70
2018-07-22T20:36:36.956Z,4.90
2018-07-22T20:39:09.672Z,4.60
2018-07-22T20:41:39.205Z,5.03
2018-07-22T20:44:07.848Z,5.65
2018-07-22T20:46:36.109Z,5.20
2018-07-22T20:49:04.687Z,4.83
2018-07-22T20:51:33.678Z,5.58
2018-07-22T20:54:02.459Z,6.30
2018-07-22T20:56:31.556Z,5.53
2018-07-22T20:59:00.395Z,6.05
2018-07-22T21:01:29.060Z,5.53
2018-07-22T21:03:57.699Z,6.25
2018-07-22T21:06:26.371Z,6.33
2018-07-22T21:08:55.039Z,5.70
2018-07-22T21:11:23.656Z,5.85
2018-07-22T21:13:52.729Z,6.28
2018-07-22T21:16:21.367Z,6.05
2018-07-22T21:18:50.161Z,5.70
2018-07-22T21:21:18.830Z,5.42
2018-07-22T21:23:47.882Z,5.83
2018-07-22T21:26:17.066Z,4.92
2018-07-22T21:28:45.719Z,5.45
2018-07-22T21:31:14.425Z,5.25
2018-07-22T21:33:43.276Z,4.70
2018-07-22T21:36:12.554Z,5.30
2018-07-22T21:38:41.290Z,4.90
2018-07-22T21:41:10.182Z,5.00
2018-07-22T21:43:39.209Z,5.00
2018-07-22T21:46:08.019Z,4.72
2018-07-22T21:48:37.112Z,4.62
2018-07-22T21:51:06.116Z,4.33
2018-07-22T21:53:35.149Z,4.67
2018-07-22T21:56:03.798Z,5.00
2018-07-22T21:58:32.575Z,4.55
2018-07-22T22:01:01.393Z,5.22
2018-07-22T22:03:30.500Z,5.17
2018-07-22T22:05:59.303Z,4.33
2018-07-22T22:08:27.981Z,5.08
2018-07-22T22:10:56.763Z,5.08
2018-07-22T22:13:25.778Z,4.90
2018-07-22T22:15:54.605Z,4.95
2018-07-22T22:18:23.282Z,5.17
2018-07-22T22:20:51.962Z,5.15
2018-07-22T22:23:20.810Z,5.70
2018-07-22T22:25:49.595Z,5.30
2018-07-22T22:28:18.690Z,5.28
2018-07-22T22:30:47.527Z,5.55
2018-07-22T22:33:16.406Z,5.75
2018-07-22T22:35:45.584Z,4.95
2018-07-22T22:38:14.351Z,5.70
2018-07-22T22:40:43.556Z,4.97
2018-07-22T22:43:12.333Z,5.25
2018-07-22T22:45:41.047Z,5.22
2018-07-22T22:48:10.072Z,5.08
2018-07-22T22:50:38.771Z,5.05
2018-07-22T22:53:07.506Z,5.37
2018-07-22T22:55:36.692Z,5.35
2018-07-22T22:58:16.843Z,5.35
2018-07-22T23:00:45.782Z,5.58
2018-07-22T23:03:14.399Z,5.53
2018-07-22T23:05:43.339Z,5.22
2018-07-22T23:08:12.162Z,5.17
2018-07-22T23:10:40.839Z,6.10
2018-07-22T23:13:09.539Z,5.70
2018-07-22T23:15:38.461Z,5.70
2018-07-22T23:18:07.297Z,5.75
2018-07-22T23:20:36.102Z,5.35
2018-07-22T23:23:05.301Z,5.80
2018-07-22T23:25:34.381Z,5.53
2018-07-22T23:28:03.050Z,4.95
2018-07-22T23:30:31.699Z,5.50
2018-07-22T23:33:00.344Z,5.25
2018-07-22T23:35:29.368Z,5.28
2018-07-22T23:37:58.095Z,5.37
2018-07-22T23:40:27.154Z,5.20
2018-07-22T23:42:56.204Z,5.03
2018-07-22T23:45:25.245Z,5.05
2018-07-22T23:47:54.326Z,5.20
2018-07-22T23:50:22.971Z,5.03
2018-07-22T23:52:52.069Z,5.05
2018-07-22T23:55:20.716Z,5.50
2018-07-22T23:57:49.583Z,5.30
